sensor_id;sensor_type;location;lat;lon;timestamp;P1;durP1;ratioP1;P2;durP2;ratioP2
21820;SDS011;11073;48.586;12.066;2022-08-19T00:01:57;16.20;;;14.68;;
21820;SDS011;11073;48.586;12.066;2022-08-19T00:04:28;16.33;;;14.77;;
21820;SDS011;11073;48.586;12.066;2022-08-19T00:07:00;15.07;;;13.63;;
21820;SDS011;11073;48.586;12.066;2022-08-19T00:09:29;14.98;;;13.23;;
21820;SDS011;11073;48.586;12.066;2022-08-19T00:11:58;16.60;;;15.10;;
21820;SDS011;11073;48.586;12.066;2022-08-19T00:14:28;14.10;;;12.90;;
21820;SDS011;11073;48.586;12.066;2022-08-19T00:16:59;15.70;;;14.20;;
21820;SDS011;11073;48.586;12.066;2022-08-19T00:19:29;15.60;;;14.30;;
21820;SDS011;11073;48.586;12.066;2022-08-19T00:21:58;14.50;;;13.20;;
21820;SDS011;11073;48.586;12.066;2022-08-19T00:24:29;14.77;;;13.43;;
21820;SDS011;11073;48.586;12.066;2022-08-19T00:26:57;16.02;;;14.65;;
21820;SDS011;11073;48.586;12.066;2022-08-19T00:29:48;16.13;;;14.50;;
21820;SDS011;11073;48.586;12.066;2022-08-19T00:32:19;17.27;;;15.55;;
21820;SDS011;11073;48.586;12.066;2022-08-19T00:34:56;15.70;;;14.30;;
21820;SDS011;11073;48.586;12.066;2022-08-19T00:37:28;17.55;;;15.88;;
21820;SDS011;11073;48.586;12.066;2022-08-19T00:39:57;16.17;;;14.48;;
21820;SDS011;11073;48.586;12.066;2022-08-19T00:42:26;15.32;;;13.88;;
21820;SDS011;11073;48.586;12.066;2022-08-19T00:44:56;17.55;;;15.85;;
21820;SDS011;11073;48.586;12.066;2022-08-19T00:47:24;17.35;;;15.82;;
21820;SDS011;11073;48.586;12.066;2022-08-19T00:49:54;19.17;;;17.27;;
21820;SDS011;11073;48.586;12.066;2022-08-19T00:52:26;19.15;;;17.27;;
21820;SDS011;11073;48.586;12.066;2022-08-19T00:54:59;17.17;;;15.57;;
21820;SDS011;11073;48.586;12.066;2022-08-19T00:57:29;16.90;;;15.35;;
21820;SDS011;11073;48.586;12.066;2022-08-19T01:00:04;16.70;;;15.20;;
21820;SDS011;11073;48.586;12.066;2022-08-19T01:02:37;18.23;;;16.33;;
21820;SDS011;11073;48.586;12.066;2022-08-19T01:05:08;18.48;;;16.77;;
21820;SDS011;11073;48.586;12.066;2022-08-19T01:07:39;18.52;;;16.80;;
21820;SDS011;11073;48.586;12.066;2022-08-19T01:10:10;16.25;;;14.75;;
21820;SDS011;11073;48.586;12.066;2022-08-19T01:12:42;18.17;;;16.33;;
21820;SDS011;11073;48.586;12.066;2022-08-19T01:15:12;18.27;;;16.58;;
21820;SDS011;11073;48.586;12.066;2022-08-19T01:17:44;18.50;;;16.85;;
21820;SDS011;11073;48.586;12.066;2022-08-19T01:20:15;19.27;;;17.48;;
21820;SDS011;11073;48.586;12.066;2022-08-19T01:22:48;19.55;;;17.55;;
21820;SDS011;11073;48.586;12.066;2022-08-19T01:25:26;18.92;;;17.13;;
21820;SDS011;11073;48.586;12.066;2022-08-19T01:27:57;19.42;;;17.60;;
21820;SDS011;11073;48.586;12.066;2022-08-19T01:30:37;22.25;;;20.30;;
21820;SDS011;11073;48.586;12.066;2022-08-19T01:33:10;18.30;;;16.45;;
21820;SDS011;11073;48.586;12.066;2022-08-19T01:35:39;19.77;;;17.67;;
21820;SDS011;11073;48.586;12.066;2022-08-19T01:38:18;21.00;;;18.98;;
21820;SDS011;11073;48.586;12.066;2022-08-19T01:40:50;19.70;;;17.92;;
21820;SDS011;11073;48.586;12.066;2022-08-19T01:43:19;22.02;;;19.83;;
21820;SDS011;11073;48.586;12.066;2022-08-19T01:45:47;19.00;;;17.35;;
21820;SDS011;11073;48.586;12.066;2022-08-19T01:48:17;20.52;;;18.58;;
21820;SDS011;11073;48.586;12.066;2022-08-19T01:50:47;22.58;;;20.38;;
21820;SDS011;11073;48.586;12.066;2022-08-19T01:53:18;22.83;;;20.45;;
21820;SDS011;11073;48.586;12.066;2022-08-19T01:55:48;21.85;;;19.75;;
21820;SDS011;11073;48.586;12.066;2022-08-19T01:58:19;21.30;;;19.13;;
21820;SDS011;11073;48.586;12.066;2022-08-19T02:00:51;21.95;;;19.90;;
21820;SDS011;11073;48.586;12.066;2022-08-19T02:03:20;22.30;;;20.20;;
21820;SDS011;11073;48.586;12.066;2022-08-19T02:05:53;22.30;;;20.20;;
21820;SDS011;11073;48.586;12.066;2022-08-19T02:08:23;21.25;;;19.25;;
21820;SDS011;11073;48.586;12.066;2022-08-19T02:10:52;21.45;;;19.45;;
21820;SDS011;11073;48.586;12.066;2022-08-19T02:13:23;18.35;;;16.65;;
21820;SDS011;11073;48.586;12.066;2022-08-19T02:15:53;19.48;;;17.67;;
21820;SDS011;11073;48.586;12.066;2022-08-19T02:18:22;21.05;;;19.13;;
21820;SDS011;11073;48.586;12.066;2022-08-19T02:20:54;20.80;;;18.70;;
21820;SDS011;11073;48.586;12.066;2022-08-19T02:23:24;20.55;;;18.65;;
21820;SDS011;11073;48.586;12.066;2022-08-19T02:25:54;21.42;;;19.38;;
21820;SDS011;11073;48.586;12.066;2022-08-19T02:28:23;19.25;;;17.55;;
21820;SDS011;11073;48.586;12.066;2022-08-19T02:30:51;22.50;;;20.33;;
21820;SDS011;11073;48.586;12.066;2022-08-19T02:33:20;23.15;;;20.98;;
21820;SDS011;11073;48.586;12.066;2022-08-19T02:35:49;24.65;;;22.33;;
21820;SDS011;11073;48.586;12.066;2022-08-19T02:38:18;22.75;;;20.55;;
21820;SDS011;11073;48.586;12.066;2022-08-19T02:40:58;22.98;;;20.77;;
21820;SDS011;11073;48.586;12.066;2022-08-19T02:43:29;23.05;;;20.85;;
21820;SDS011;11073;48.586;12.066;2022-08-19T02:46:00;23.35;;;21.15;;
21820;SDS011;11073;48.586;12.066;2022-08-19T02:48:30;22.83;;;20.40;;
21820;SDS011;11073;48.586;12.066;2022-08-19T02:50:59;22.88;;;20.77;;
21820;SDS011;11073;48.586;12.066;2022-08-19T02:53:28;22.35;;;20.20;;
21820;SDS011;11073;48.586;12.066;2022-08-19T02:55:58;22.08;;;20.08;;
21820;SDS011;11073;48.586;12.066;2022-08-19T02:58:27;25.40;;;23.00;;
21820;SDS011;11073;48.586;12.066;2022-08-19T03:00:56;23.27;;;20.98;;
21820;SDS011;11073;48.586;12.066;2022-08-19T03:03:25;23.40;;;21.20;;
21820;SDS011;11073;48.586;12.066;2022-08-19T03:06:04;22.00;;;19.85;;
21820;SDS011;11073;48.586;12.066;2022-08-19T03:08:35;21.33;;;19.25;;
21820;SDS011;11073;48.586;12.066;2022-08-19T03:11:10;22.60;;;20.40;;
21820;SDS011;11073;48.586;12.066;2022-08-19T03:13:41;21.60;;;19.48;;
21820;SDS011;11073;48.586;12.066;2022-08-19T03:16:11;22.73;;;20.33;;
21820;SDS011;11073;48.586;12.066;2022-08-19T03:18:40;22.75;;;20.45;;
21820;SDS011;11073;48.586;12.066;2022-08-19T03:21:09;22.10;;;20.02;;
21820;SDS011;11073;48.586;12.066;2022-08-19T03:23:44;22.83;;;20.60;;
21820;SDS011;11073;48.586;12.066;2022-08-19T03:26:14;22.27;;;20.10;;
21820;SDS011;11073;48.586;12.066;2022-08-19T03:28:43;21.65;;;19.35;;
21820;SDS011;11073;48.586;12.066;2022-08-19T03:31:26;22.55;;;20.33;;
21820;SDS011;11073;48.586;12.066;2022-08-19T03:34:16;23.05;;;20.77;;
21820;SDS011;11073;48.586;12.066;2022-08-19T03:36:47;23.50;;;21.23;;
21820;SDS011;11073;48.586;12.066;2022-08-19T03:39:16;22.42;;;20.33;;
21820;SDS011;11073;48.586;12.066;2022-08-19T03:41:47;23.35;;;21.02;;
21820;SDS011;11073;48.586;12.066;2022-08-19T03:44:36;21.65;;;19.55;;
21820;SDS011;11073;48.586;12.066;2022-08-19T03:47:06;22.00;;;19.92;;
21820;SDS011;11073;48.586;12.066;2022-08-19T03:49:34;22.55;;;20.35;;
21820;SDS011;11073;48.586;12.066;2022-08-19T03:52:04;22.55;;;20.35;;
21820;SDS011;11073;48.586;12.066;2022-08-19T03:54:34;23.02;;;20.73;;
21820;SDS011;11073;48.586;12.066;2022-08-19T03:57:06;21.08;;;19.00;;
21820;SDS011;11073;48.586;12.066;2022-08-19T03:59:36;18.92;;;17.02;;
21820;SDS011;11073;48.586;12.066;2022-08-19T04:02:07;19.55;;;17.75;;
21820;SDS011;11073;48.586;12.066;2022-08-19T04:04:38;19.23;;;17.48;;
21820;SDS011;11073;48.586;12.066;2022-08-19T04:07:11;20.92;;;18.75;;
21820;SDS011;11073;48.586;12.066;2022-08-19T04:09:42;17.92;;;16.17;;
21820;SDS011;11073;48.586;12.066;2022-08-19T04:12:13;18.15;;;16.35;;
21820;SDS011;11073;48.586;12.066;2022-08-19T04:14:42;17.25;;;15.55;;
21820;SDS011;11073;48.586;12.066;2022-08-19T04:17:11;18.67;;;16.75;;
21820;SDS011;11073;48.586;12.066;2022-08-19T04:19:41;19.55;;;17.75;;
21820;SDS011;11073;48.586;12.066;2022-08-19T04:22:10;19.85;;;18.05;;
21820;SDS011;11073;48.586;12.066;2022-08-19T04:24:39;18.00;;;16.27;;
21820;SDS011;11073;48.586;12.066;2022-08-19T04:27:08;17.00;;;15.43;;
21820;SDS011;11073;48.586;12.066;2022-08-19T04:29:37;17.35;;;15.63;;
21820;SDS011;11073;48.586;12.066;2022-08-19T04:32:07;15.52;;;13.95;;
21820;SDS011;11073;48.586;12.066;2022-08-19T04:34:36;17.35;;;15.55;;
21820;SDS011;11073;48.586;12.066;2022-08-19T04:37:26;18.23;;;16.42;;
21820;SDS011;11073;48.586;12.066;2022-08-19T04:40:03;15.77;;;14.25;;
21820;SDS011;11073;48.586;12.066;2022-08-19T04:43:05;18.58;;;15.63;;
21820;SDS011;11073;48.586;12.066;2022-08-19T04:45:35;18.30;;;16.17;;
21820;SDS011;11073;48.586;12.066;2022-08-19T04:48:10;17.77;;;16.08;;
21820;SDS011;11073;48.586;12.066;2022-08-19T04:50:54;17.35;;;15.63;;
21820;SDS011;11073;48.586;12.066;2022-08-19T04:53:25;16.33;;;14.65;;
21820;SDS011;11073;48.586;12.066;2022-08-19T04:56:04;17.42;;;15.82;;
21820;SDS011;11073;48.586;12.066;2022-08-19T04:58:39;19.27;;;17.35;;
21820;SDS011;11073;48.586;12.066;2022-08-19T05:01:12;19.80;;;17.90;;
21820;SDS011;11073;48.586;12.066;2022-08-19T05:03:44;18.50;;;16.70;;
21820;SDS011;11073;48.586;12.066;2022-08-19T05:06:13;16.75;;;15.05;;
21820;SDS011;11073;48.586;12.066;2022-08-19T05:08:44;18.25;;;16.33;;
21820;SDS011;11073;48.586;12.066;2022-08-19T05:11:14;19.35;;;17.30;;
21820;SDS011;11073;48.586;12.066;2022-08-19T05:13:45;19.55;;;17.60;;
21820;SDS011;11073;48.586;12.066;2022-08-19T05:16:17;21.83;;;19.50;;
21820;SDS011;11073;48.586;12.066;2022-08-19T05:18:48;20.92;;;18.73;;
21820;SDS011;11073;48.586;12.066;2022-08-19T05:21:34;21.98;;;19.35;;
21820;SDS011;11073;48.586;12.066;2022-08-19T05:24:21;21.88;;;19.65;;
21820;SDS011;11073;48.586;12.066;2022-08-19T05:26:52;21.50;;;19.40;;
21820;SDS011;11073;48.586;12.066;2022-08-19T05:29:24;22.30;;;19.98;;
21820;SDS011;11073;48.586;12.066;2022-08-19T05:32:04;19.38;;;17.38;;
21820;SDS011;11073;48.586;12.066;2022-08-19T05:34:35;21.75;;;19.50;;
21820;SDS011;11073;48.586;12.066;2022-08-19T05:37:05;21.10;;;18.98;;
21820;SDS011;11073;48.586;12.066;2022-08-19T05:39:35;21.40;;;19.20;;
21820;SDS011;11073;48.586;12.066;2022-08-19T05:42:07;18.92;;;17.17;;
21820;SDS011;11073;48.586;12.066;2022-08-19T05:44:37;22.63;;;20.33;;
21820;SDS011;11073;48.586;12.066;2022-08-19T05:47:12;21.50;;;19.30;;
21820;SDS011;11073;48.586;12.066;2022-08-19T05:49:42;20.20;;;17.92;;
21820;SDS011;11073;48.586;12.066;2022-08-19T05:52:12;21.98;;;19.73;;
21820;SDS011;11073;48.586;12.066;2022-08-19T05:54:45;20.25;;;18.25;;
21820;SDS011;11073;48.586;12.066;2022-08-19T05:57:18;21.25;;;18.88;;
21820;SDS011;11073;48.586;12.066;2022-08-19T05:59:47;22.20;;;19.95;;
21820;SDS011;11073;48.586;12.066;2022-08-19T06:02:26;22.10;;;19.85;;
21820;SDS011;11073;48.586;12.066;2022-08-19T06:04:55;19.52;;;17.67;;
21820;SDS011;11073;48.586;12.066;2022-08-19T06:07:23;20.63;;;18.15;;
21820;SDS011;11073;48.586;12.066;2022-08-19T06:09:52;19.25;;;17.35;;
21820;SDS011;11073;48.586;12.066;2022-08-19T06:12:27;18.63;;;16.75;;
21820;SDS011;11073;48.586;12.066;2022-08-19T06:14:58;18.77;;;16.80;;
21820;SDS011;11073;48.586;12.066;2022-08-19T06:17:29;21.98;;;19.70;;
21820;SDS011;11073;48.586;12.066;2022-08-19T06:19:58;20.27;;;18.35;;
21820;SDS011;11073;48.586;12.066;2022-08-19T06:22:27;21.55;;;19.35;;
21820;SDS011;11073;48.586;12.066;2022-08-19T06:24:56;23.17;;;20.77;;
21820;SDS011;11073;48.586;12.066;2022-08-19T06:27:25;22.17;;;19.20;;
21820;SDS011;11073;48.586;12.066;2022-08-19T06:29:53;22.08;;;19.83;;
21820;SDS011;11073;48.586;12.066;2022-08-19T06:32:21;20.83;;;18.48;;
21820;SDS011;11073;48.586;12.066;2022-08-19T06:34:51;20.13;;;18.13;;
21820;SDS011;11073;48.586;12.066;2022-08-19T06:37:20;17.05;;;15.45;;
21820;SDS011;11073;48.586;12.066;2022-08-19T06:39:49;20.08;;;17.33;;
21820;SDS011;11073;48.586;12.066;2022-08-19T06:42:18;23.27;;;20.73;;
21820;SDS011;11073;48.586;12.066;2022-08-19T06:44:49;21.88;;;19.60;;
21820;SDS011;11073;48.586;12.066;2022-08-19T06:47:20;22.75;;;20.33;;
21820;SDS011;11073;48.586;12.066;2022-08-19T06:49:56;23.05;;;20.73;;
21820;SDS011;11073;48.586;12.066;2022-08-19T06:52:29;24.50;;;22.02;;
21820;SDS011;11073;48.586;12.066;2022-08-19T06:55:02;21.98;;;19.73;;
21820;SDS011;11073;48.586;12.066;2022-08-19T06:57:33;21.55;;;19.35;;
21820;SDS011;11073;48.586;12.066;2022-08-19T07:00:02;27.08;;;24.15;;
21820;SDS011;11073;48.586;12.066;2022-08-19T07:02:35;23.08;;;20.58;;
21820;SDS011;11073;48.586;12.066;2022-08-19T07:05:06;22.30;;;19.95;;
21820;SDS011;11073;48.586;12.066;2022-08-19T07:07:36;25.40;;;22.70;;
21820;SDS011;11073;48.586;12.066;2022-08-19T07:10:09;22.08;;;19.77;;
21820;SDS011;11073;48.586;12.066;2022-08-19T07:12:38;26.73;;;23.30;;
21820;SDS011;11073;48.586;12.066;2022-08-19T07:15:08;26.85;;;24.02;;
21820;SDS011;11073;48.586;12.066;2022-08-19T07:17:38;23.67;;;21.27;;
21820;SDS011;11073;48.586;12.066;2022-08-19T07:20:12;24.88;;;22.33;;
21820;SDS011;11073;48.586;12.066;2022-08-19T07:22:44;25.15;;;22.55;;
21820;SDS011;11073;48.586;12.066;2022-08-19T07:25:13;26.55;;;23.75;;
21820;SDS011;11073;48.586;12.066;2022-08-19T07:27:44;24.63;;;22.13;;
21820;SDS011;11073;48.586;12.066;2022-08-19T07:30:20;24.27;;;21.10;;
21820;SDS011;11073;48.586;12.066;2022-08-19T07:32:52;21.90;;;19.35;;
21820;SDS011;11073;48.586;12.066;2022-08-19T07:35:23;17.92;;;16.13;;
21820;SDS011;11073;48.586;12.066;2022-08-19T07:37:51;16.73;;;15.02;;
21820;SDS011;11073;48.586;12.066;2022-08-19T07:40:20;15.88;;;14.27;;
21820;SDS011;11073;48.586;12.066;2022-08-19T07:42:49;15.35;;;13.75;;
21820;SDS011;11073;48.586;12.066;2022-08-19T07:45:17;16.13;;;14.48;;
21820;SDS011;11073;48.586;12.066;2022-08-19T07:47:47;16.15;;;14.50;;
21820;SDS011;11073;48.586;12.066;2022-08-19T07:50:18;17.17;;;15.48;;
21820;SDS011;11073;48.586;12.066;2022-08-19T07:52:49;17.02;;;15.35;;
21820;SDS011;11073;48.586;12.066;2022-08-19T07:55:20;17.48;;;15.48;;
21820;SDS011;11073;48.586;12.066;2022-08-19T07:58:10;21.52;;;18.67;;
21820;SDS011;11073;48.586;12.066;2022-08-19T08:00:41;25.02;;;22.35;;
21820;SDS011;11073;48.586;12.066;2022-08-19T08:03:11;20.90;;;18.65;;
21820;SDS011;11073;48.586;12.066;2022-08-19T08:05:41;22.08;;;19.77;;
21820;SDS011;11073;48.586;12.066;2022-08-19T08:08:29;21.55;;;19.45;;
21820;SDS011;11073;48.586;12.066;2022-08-19T08:11:19;29.55;;;24.88;;
21820;SDS011;11073;48.586;12.066;2022-08-19T08:13:50;29.58;;;26.38;;
21820;SDS011;11073;48.586;12.066;2022-08-19T08:16:31;26.65;;;23.85;;
21820;SDS011;11073;48.586;12.066;2022-08-19T08:19:14;34.47;;;29.55;;
21820;SDS011;11073;48.586;12.066;2022-08-19T08:21:52;32.33;;;28.40;;
21820;SDS011;11073;48.586;12.066;2022-08-19T08:24:22;33.45;;;29.85;;
21820;SDS011;11073;48.586;12.066;2022-08-19T08:26:55;39.03;;;33.40;;
21820;SDS011;11073;48.586;12.066;2022-08-19T08:29:25;38.28;;;33.40;;
21820;SDS011;11073;48.586;12.066;2022-08-19T08:32:01;35.45;;;31.33;;
21820;SDS011;11073;48.586;12.066;2022-08-19T08:34:41;40.88;;;35.40;;
21820;SDS011;11073;48.586;12.066;2022-08-19T08:37:10;39.85;;;32.95;;
21820;SDS011;11073;48.586;12.066;2022-08-19T08:39:43;42.05;;;36.63;;
21820;SDS011;11073;48.586;12.066;2022-08-19T08:42:15;38.65;;;32.58;;
21820;SDS011;11073;48.586;12.066;2022-08-19T08:44:53;40.47;;;35.55;;
21820;SDS011;11073;48.586;12.066;2022-08-19T08:47:27;38.30;;;33.90;;
21820;SDS011;11073;48.586;12.066;2022-08-19T08:50:03;38.10;;;33.53;;
21820;SDS011;11073;48.586;12.066;2022-08-19T08:52:36;33.58;;;29.08;;
21820;SDS011;11073;48.586;12.066;2022-08-19T08:55:12;32.88;;;29.30;;
21820;SDS011;11073;48.586;12.066;2022-08-19T08:57:49;31.02;;;27.83;;
21820;SDS011;11073;48.586;12.066;2022-08-19T09:00:22;30.45;;;26.25;;
21820;SDS011;11073;48.586;12.066;2022-08-19T09:02:54;28.88;;;25.92;;
21820;SDS011;11073;48.586;12.066;2022-08-19T09:05:26;30.85;;;27.63;;
21820;SDS011;11073;48.586;12.066;2022-08-19T09:08:16;29.55;;;26.50;;
21820;SDS011;11073;48.586;12.066;2022-08-19T09:10:53;28.48;;;25.55;;
21820;SDS011;11073;48.586;12.066;2022-08-19T09:13:26;24.98;;;22.38;;
21820;SDS011;11073;48.586;12.066;2022-08-19T09:16:04;27.70;;;25.00;;
21820;SDS011;11073;48.586;12.066;2022-08-19T09:18:38;28.88;;;25.75;;
21820;SDS011;11073;48.586;12.066;2022-08-19T09:21:09;31.42;;;27.67;;
21820;SDS011;11073;48.586;12.066;2022-08-19T09:23:38;28.02;;;25.20;;
21820;SDS011;11073;48.586;12.066;2022-08-19T09:26:11;30.38;;;27.17;;
21820;SDS011;11073;48.586;12.066;2022-08-19T09:28:42;26.02;;;23.45;;
21820;SDS011;11073;48.586;12.066;2022-08-19T09:31:16;23.85;;;21.45;;
21820;SDS011;11073;48.586;12.066;2022-08-19T09:33:46;25.17;;;22.48;;
21820;SDS011;11073;48.586;12.066;2022-08-19T09:36:18;25.17;;;22.60;;
21820;SDS011;11073;48.586;12.066;2022-08-19T09:39:01;27.85;;;24.85;;
21820;SDS011;11073;48.586;12.066;2022-08-19T09:41:43;28.23;;;25.10;;
21820;SDS011;11073;48.586;12.066;2022-08-19T09:44:15;33.88;;;30.30;;
21820;SDS011;11073;48.586;12.066;2022-08-19T09:46:45;27.90;;;25.10;;
21820;SDS011;11073;48.586;12.066;2022-08-19T09:49:15;28.13;;;25.20;;
21820;SDS011;11073;48.586;12.066;2022-08-19T09:51:48;28.02;;;25.17;;
21820;SDS011;11073;48.586;12.066;2022-08-19T09:54:18;34.38;;;30.67;;
21820;SDS011;11073;48.586;12.066;2022-08-19T09:56:53;33.53;;;29.42;;
21820;SDS011;11073;48.586;12.066;2022-08-19T09:59:22;30.02;;;26.77;;
21820;SDS011;11073;48.586;12.066;2022-08-19T10:01:51;32.17;;;28.73;;
21820;SDS011;11073;48.586;12.066;2022-08-19T10:04:20;30.88;;;27.48;;
21820;SDS011;11073;48.586;12.066;2022-08-19T10:06:51;31.75;;;28.30;;
21820;SDS011;11073;48.586;12.066;2022-08-19T10:09:23;29.98;;;26.85;;
21820;SDS011;11073;48.586;12.066;2022-08-19T10:12:03;26.63;;;23.73;;
21820;SDS011;11073;48.586;12.066;2022-08-19T10:14:37;21.33;;;19.13;;
21820;SDS011;11073;48.586;12.066;2022-08-19T10:17:06;21.80;;;19.58;;
21820;SDS011;11073;48.586;12.066;2022-08-19T10:19:45;21.80;;;19.42;;
21820;SDS011;11073;48.586;12.066;2022-08-19T10:22:21;20.23;;;18.23;;
21820;SDS011;11073;48.586;12.066;2022-08-19T10:24:52;20.80;;;17.52;;
21820;SDS011;11073;48.586;12.066;2022-08-19T10:27:22;21.02;;;18.80;;
21820;SDS011;11073;48.586;12.066;2022-08-19T10:29:52;17.92;;;16.30;;
21820;SDS011;11073;48.586;12.066;2022-08-19T10:32:24;23.73;;;21.17;;
21820;SDS011;11073;48.586;12.066;2022-08-19T10:35:00;24.73;;;15.75;;
21820;SDS011;11073;48.586;12.066;2022-08-19T10:37:32;23.73;;;17.52;;
21820;SDS011;11073;48.586;12.066;2022-08-19T10:40:01;20.13;;;15.93;;
21820;SDS011;11073;48.586;12.066;2022-08-19T10:42:33;14.40;;;9.90;;
21820;SDS011;11073;48.586;12.066;2022-08-19T10:45:03;13.40;;;8.20;;
21820;SDS011;11073;48.586;12.066;2022-08-19T10:47:33;11.57;;;8.95;;
21820;SDS011;11073;48.586;12.066;2022-08-19T10:50:03;12.15;;;9.32;;
21820;SDS011;11073;48.586;12.066;2022-08-19T10:52:55;10.77;;;9.20;;
21820;SDS011;11073;48.586;12.066;2022-08-19T10:55:24;11.43;;;9.18;;
21820;SDS011;11073;48.586;12.066;2022-08-19T10:58:11;10.38;;;9.43;;
21820;SDS011;11073;48.586;12.066;2022-08-19T11:00:41;11.75;;;10.55;;
21820;SDS011;11073;48.586;12.066;2022-08-19T11:03:11;13.68;;;12.40;;
21820;SDS011;11073;48.586;12.066;2022-08-19T11:05:39;15.85;;;14.35;;
21820;SDS011;11073;48.586;12.066;2022-08-19T11:08:08;15.77;;;14.18;;
21820;SDS011;11073;48.586;12.066;2022-08-19T11:10:50;15.93;;;14.43;;
21820;SDS011;11073;48.586;12.066;2022-08-19T11:13:26;15.32;;;13.88;;
21820;SDS011;11073;48.586;12.066;2022-08-19T11:15:56;14.68;;;13.18;;
21820;SDS011;11073;48.586;12.066;2022-08-19T11:18:33;13.18;;;11.98;;
21820;SDS011;11073;48.586;12.066;2022-08-19T11:21:08;13.10;;;11.70;;
21820;SDS011;11073;48.586;12.066;2022-08-19T11:23:39;12.38;;;11.27;;
21820;SDS011;11073;48.586;12.066;2022-08-19T11:26:07;11.20;;;10.10;;
21820;SDS011;11073;48.586;12.066;2022-08-19T11:28:37;11.68;;;10.48;;
21820;SDS011;11073;48.586;12.066;2022-08-19T11:31:09;8.50;;;7.57;;
21820;SDS011;11073;48.586;12.066;2022-08-19T11:33:39;8.23;;;7.63;;
21820;SDS011;11073;48.586;12.066;2022-08-19T11:36:13;9.10;;;8.20;;
21820;SDS011;11073;48.586;12.066;2022-08-19T11:38:43;9.10;;;8.30;;
21820;SDS011;11073;48.586;12.066;2022-08-19T11:41:13;9.02;;;8.13;;
21820;SDS011;11073;48.586;12.066;2022-08-19T11:43:43;7.18;;;6.47;;
21820;SDS011;11073;48.586;12.066;2022-08-19T11:46:13;8.13;;;7.32;;
21820;SDS011;11073;48.586;12.066;2022-08-19T11:48:43;7.88;;;7.18;;
21820;SDS011;11073;48.586;12.066;2022-08-19T11:51:14;8.25;;;7.55;;
21820;SDS011;11073;48.586;12.066;2022-08-19T11:53:45;8.32;;;7.53;;
21820;SDS011;11073;48.586;12.066;2022-08-19T11:56:14;8.70;;;7.85;;
21820;SDS011;11073;48.586;12.066;2022-08-19T11:58:44;8.57;;;7.88;;
21820;SDS011;11073;48.586;12.066;2022-08-19T12:01:15;9.38;;;8.50;;
21820;SDS011;11073;48.586;12.066;2022-08-19T12:03:47;8.77;;;7.97;;
21820;SDS011;11073;48.586;12.066;2022-08-19T12:06:17;9.50;;;8.70;;
21820;SDS011;11073;48.586;12.066;2022-08-19T12:08:51;10.38;;;9.45;;
21820;SDS011;11073;48.586;12.066;2022-08-19T12:11:21;10.30;;;9.27;;
21820;SDS011;11073;48.586;12.066;2022-08-19T12:13:50;8.55;;;7.75;;
21820;SDS011;11073;48.586;12.066;2022-08-19T12:16:21;8.00;;;7.35;;
21820;SDS011;11073;48.586;12.066;2022-08-19T12:18:52;7.78;;;7.07;;
21820;SDS011;11073;48.586;12.066;2022-08-19T12:21:23;8.43;;;7.65;;
21820;SDS011;11073;48.586;12.066;2022-08-19T12:23:55;9.60;;;8.77;;
21820;SDS011;11073;48.586;12.066;2022-08-19T12:26:26;10.68;;;9.68;;
21820;SDS011;11073;48.586;12.066;2022-08-19T12:28:58;9.50;;;8.65;;
21820;SDS011;11073;48.586;12.066;2022-08-19T12:31:28;9.32;;;8.43;;
21820;SDS011;11073;48.586;12.066;2022-08-19T12:33:57;10.82;;;9.90;;
21820;SDS011;11073;48.586;12.066;2022-08-19T12:36:27;10.80;;;9.90;;
21820;SDS011;11073;48.586;12.066;2022-08-19T12:38:57;14.48;;;13.10;;
21820;SDS011;11073;48.586;12.066;2022-08-19T12:41:26;14.80;;;13.40;;
21820;SDS011;11073;48.586;12.066;2022-08-19T12:43:55;13.80;;;12.43;;
21820;SDS011;11073;48.586;12.066;2022-08-19T12:46:24;15.88;;;14.27;;
21820;SDS011;11073;48.586;12.066;2022-08-19T12:48:53;13.75;;;12.32;;
21820;SDS011;11073;48.586;12.066;2022-08-19T12:51:23;13.73;;;12.43;;
21820;SDS011;11073;48.586;12.066;2022-08-19T12:53:54;11.93;;;10.77;;
21820;SDS011;11073;48.586;12.066;2022-08-19T12:56:23;11.60;;;10.48;;
21820;SDS011;11073;48.586;12.066;2022-08-19T12:58:51;9.70;;;8.80;;
21820;SDS011;11073;48.586;12.066;2022-08-19T13:01:20;9.55;;;8.75;;
21820;SDS011;11073;48.586;12.066;2022-08-19T13:03:51;9.48;;;8.57;;
21820;SDS011;11073;48.586;12.066;2022-08-19T13:06:20;7.15;;;6.50;;
21820;SDS011;11073;48.586;12.066;2022-08-19T13:08:49;7.53;;;6.93;;
21820;SDS011;11073;48.586;12.066;2022-08-19T13:11:18;6.97;;;6.38;;
21820;SDS011;11073;48.586;12.066;2022-08-19T13:13:48;6.82;;;6.28;;
21820;SDS011;11073;48.586;12.066;2022-08-19T13:16:18;6.00;;;5.45;;
21820;SDS011;11073;48.586;12.066;2022-08-19T13:18:48;7.40;;;6.70;;
21820;SDS011;11073;48.586;12.066;2022-08-19T13:21:19;7.88;;;7.18;;
21820;SDS011;11073;48.586;12.066;2022-08-19T13:23:49;6.93;;;6.32;;
21820;SDS011;11073;48.586;12.066;2022-08-19T13:26:18;6.78;;;6.15;;
21820;SDS011;11073;48.586;12.066;2022-08-19T13:28:47;7.55;;;6.90;;
21820;SDS011;11073;48.586;12.066;2022-08-19T13:31:34;8.65;;;7.90;;
21820;SDS011;11073;48.586;12.066;2022-08-19T13:34:27;9.93;;;8.93;;
21820;SDS011;11073;48.586;12.066;2022-08-19T13:36:57;11.30;;;10.20;;
21820;SDS011;11073;48.586;12.066;2022-08-19T13:39:27;11.60;;;10.40;;
21820;SDS011;11073;48.586;12.066;2022-08-19T13:41:56;11.02;;;9.93;;
21820;SDS011;11073;48.586;12.066;2022-08-19T13:44:26;10.05;;;8.82;;
21820;SDS011;11073;48.586;12.066;2022-08-19T13:46:59;10.00;;;9.00;;
21820;SDS011;11073;48.586;12.066;2022-08-19T13:49:34;9.98;;;9.18;;
21820;SDS011;11073;48.586;12.066;2022-08-19T13:52:04;9.93;;;9.02;;
21820;SDS011;11073;48.586;12.066;2022-08-19T13:54:33;11.18;;;10.10;;
21820;SDS011;11073;48.586;12.066;2022-08-19T13:57:02;11.63;;;10.60;;
21820;SDS011;11073;48.586;12.066;2022-08-19T13:59:31;11.57;;;10.57;;
21820;SDS011;11073;48.586;12.066;2022-08-19T14:02:00;11.52;;;10.43;;
21820;SDS011;11073;48.586;12.066;2022-08-19T14:04:29;11.40;;;10.30;;
21820;SDS011;11073;48.586;12.066;2022-08-19T14:06:59;11.75;;;10.73;;
21820;SDS011;11073;48.586;12.066;2022-08-19T14:09:28;13.27;;;12.05;;
21820;SDS011;11073;48.586;12.066;2022-08-19T14:11:57;12.82;;;11.63;;
21820;SDS011;11073;48.586;12.066;2022-08-19T14:14:26;13.10;;;11.85;;
21820;SDS011;11073;48.586;12.066;2022-08-19T14:16:55;12.88;;;11.57;;
21820;SDS011;11073;48.586;12.066;2022-08-19T14:19:24;11.70;;;10.60;;
21820;SDS011;11073;48.586;12.066;2022-08-19T14:21:56;11.50;;;10.45;;
21820;SDS011;11073;48.586;12.066;2022-08-19T14:24:27;9.77;;;8.98;;
21820;SDS011;11073;48.586;12.066;2022-08-19T14:26:57;9.80;;;9.00;;
21820;SDS011;11073;48.586;12.066;2022-08-19T14:29:25;10.85;;;9.88;;
21820;SDS011;11073;48.586;12.066;2022-08-19T14:31:56;10.88;;;9.88;;
21820;SDS011;11073;48.586;12.066;2022-08-19T14:34:26;10.60;;;9.70;;
21820;SDS011;11073;48.586;12.066;2022-08-19T14:36:54;10.38;;;9.48;;
21820;SDS011;11073;48.586;12.066;2022-08-19T14:39:23;11.30;;;10.32;;
21820;SDS011;11073;48.586;12.066;2022-08-19T14:41:53;9.20;;;8.40;;